sensor_id;sensor_type;location;lat;lon;timestamp;P1;durP1;ratioP1;P2;durP2;ratioP2
9156;SDS011;4613;48.392;9.998;2023-08-06T00:02:26;2.67;;;2.30;;
9156;SDS011;4613;48.392;9.998;2023-08-06T00:05:16;2.47;;;2.20;;
9156;SDS011;4613;48.392;9.998;2023-08-06T00:08:06;2.47;;;2.27;;
9156;SDS011;4613;48.392;9.998;2023-08-06T00:10:56;2.80;;;2.60;;
9156;SDS011;4613;48.392;9.998;2023-08-06T00:13:45;2.60;;;2.40;;
9156;SDS011;4613;48.392;9.998;2023-08-06T00:16:35;2.70;;;2.50;;
9156;SDS011;4613;48.392;9.998;2023-08-06T00:19:24;3.00;;;2.40;;
9156;SDS011;4613;48.392;9.998;2023-08-06T00:22:14;2.77;;;2.57;;
9156;SDS011;4613;48.392;9.998;2023-08-06T00:25:04;2.83;;;2.23;;
9156;SDS011;4613;48.392;9.998;2023-08-06T00:27:54;2.60;;;2.40;;
9156;SDS011;4613;48.392;9.998;2023-08-06T00:30:45;2.70;;;2.50;;
9156;SDS011;4613;48.392;9.998;2023-08-06T00:33:34;2.60;;;2.40;;
9156;SDS011;4613;48.392;9.998;2023-08-06T00:36:23;3.60;;;2.60;;
9156;SDS011;4613;48.392;9.998;2023-08-06T00:39:13;4.37;;;2.80;;
9156;SDS011;4613;48.392;9.998;2023-08-06T00:42:02;2.83;;;2.53;;
9156;SDS011;4613;48.392;9.998;2023-08-06T00:44:52;2.47;;;2.27;;
9156;SDS011;4613;48.392;9.998;2023-08-06T00:47:41;2.77;;;2.57;;
9156;SDS011;4613;48.392;9.998;2023-08-06T00:50:30;2.30;;;2.00;;
9156;SDS011;4613;48.392;9.998;2023-08-06T00:53:20;2.73;;;2.33;;
9156;SDS011;4613;48.392;9.998;2023-08-06T00:56:09;3.00;;;2.60;;
9156;SDS011;4613;48.392;9.998;2023-08-06T00:58:59;2.77;;;2.40;;
9156;SDS011;4613;48.392;9.998;2023-08-06T01:01:49;2.70;;;2.50;;
9156;SDS011;4613;48.392;9.998;2023-08-06T01:04:39;2.80;;;2.30;;
9156;SDS011;4613;48.392;9.998;2023-08-06T01:14:15;1.80;;;1.70;;
9156;SDS011;4613;48.392;9.998;2023-08-06T01:17:12;2.13;;;1.93;;
9156;SDS011;4613;48.392;9.998;2023-08-06T01:20:02;2.40;;;2.20;;
9156;SDS011;4613;48.392;9.998;2023-08-06T01:22:52;2.07;;;1.87;;
9156;SDS011;4613;48.392;9.998;2023-08-06T01:25:49;1.60;;;1.50;;
9156;SDS011;4613;48.392;9.998;2023-08-06T01:32:36;2.63;;;2.20;;
9156;SDS011;4613;48.392;9.998;2023-08-06T01:35:27;2.00;;;1.90;;
9156;SDS011;4613;48.392;9.998;2023-08-06T01:38:20;2.00;;;1.90;;
9156;SDS011;4613;48.392;9.998;2023-08-06T01:41:10;2.13;;;2.00;;
9156;SDS011;4613;48.392;9.998;2023-08-06T01:43:59;2.33;;;1.90;;
9156;SDS011;4613;48.392;9.998;2023-08-06T01:46:49;2.23;;;1.83;;
9156;SDS011;4613;48.392;9.998;2023-08-06T01:49:38;1.87;;;1.60;;
9156;SDS011;4613;48.392;9.998;2023-08-06T01:55:21;2.40;;;2.20;;
9156;SDS011;4613;48.392;9.998;2023-08-06T01:58:10;1.70;;;1.60;;
9156;SDS011;4613;48.392;9.998;2023-08-06T02:01:00;1.80;;;1.70;;
9156;SDS011;4613;48.392;9.998;2023-08-06T02:03:50;2.30;;;1.90;;
9156;SDS011;4613;48.392;9.998;2023-08-06T02:06:40;2.00;;;1.70;;
9156;SDS011;4613;48.392;9.998;2023-08-06T02:09:30;1.80;;;1.70;;
9156;SDS011;4613;48.392;9.998;2023-08-06T02:12:19;2.80;;;1.80;;
9156;SDS011;4613;48.392;9.998;2023-08-06T02:15:09;3.13;;;2.10;;
9156;SDS011;4613;48.392;9.998;2023-08-06T02:17:59;2.30;;;2.10;;
9156;SDS011;4613;48.392;9.998;2023-08-06T02:20:55;1.93;;;1.83;;
9156;SDS011;4613;48.392;9.998;2023-08-06T02:23:46;2.53;;;1.93;;
9156;SDS011;4613;48.392;9.998;2023-08-06T02:26:35;2.20;;;2.00;;
9156;SDS011;4613;48.392;9.998;2023-08-06T02:29:24;4.97;;;2.00;;
9156;SDS011;4613;48.392;9.998;2023-08-06T02:32:14;2.03;;;1.80;;
9156;SDS011;4613;48.392;9.998;2023-08-06T02:35:03;2.17;;;1.97;;
9156;SDS011;4613;48.392;9.998;2023-08-06T02:37:52;1.90;;;1.80;;
9156;SDS011;4613;48.392;9.998;2023-08-06T02:40:43;2.10;;;2.00;;
9156;SDS011;4613;48.392;9.998;2023-08-06T02:43:33;4.23;;;2.33;;
9156;SDS011;4613;48.392;9.998;2023-08-06T02:46:23;1.90;;;1.77;;
9156;SDS011;4613;48.392;9.998;2023-08-06T02:49:13;2.23;;;2.03;;
9156;SDS011;4613;48.392;9.998;2023-08-06T02:52:01;2.17;;;1.97;;
9156;SDS011;4613;48.392;9.998;2023-08-06T02:54:51;2.17;;;1.97;;
9156;SDS011;4613;48.392;9.998;2023-08-06T02:57:41;1.87;;;1.77;;
9156;SDS011;4613;48.392;9.998;2023-08-06T03:00:30;2.20;;;2.00;;
9156;SDS011;4613;48.392;9.998;2023-08-06T03:03:20;2.40;;;2.20;;
9156;SDS011;4613;48.392;9.998;2023-08-06T03:06:17;2.10;;;1.90;;
9156;SDS011;4613;48.392;9.998;2023-08-06T03:09:11;2.40;;;2.20;;
9156;SDS011;4613;48.392;9.998;2023-08-06T03:12:00;1.97;;;1.83;;
9156;SDS011;4613;48.392;9.998;2023-08-06T03:14:51;2.33;;;1.90;;
9156;SDS011;4613;48.392;9.998;2023-08-06T03:17:41;2.20;;;2.00;;
9156;SDS011;4613;48.392;9.998;2023-08-06T03:20:32;3.30;;;1.97;;
9156;SDS011;4613;48.392;9.998;2023-08-06T03:23:21;2.10;;;1.90;;
9156;SDS011;4613;48.392;9.998;2023-08-06T03:26:11;2.30;;;2.10;;
9156;SDS011;4613;48.392;9.998;2023-08-06T03:29:00;2.50;;;2.00;;
9156;SDS011;4613;48.392;9.998;2023-08-06T03:31:52;2.53;;;2.00;;
9156;SDS011;4613;48.392;9.998;2023-08-06T03:34:42;2.20;;;1.97;;
9156;SDS011;4613;48.392;9.998;2023-08-06T03:37:32;2.30;;;2.10;;
9156;SDS011;4613;48.392;9.998;2023-08-06T03:40:21;2.07;;;1.90;;
9156;SDS011;4613;48.392;9.998;2023-08-06T03:43:11;2.10;;;1.90;;
9156;SDS011;4613;48.392;9.998;2023-08-06T03:46:01;2.43;;;2.23;;
9156;SDS011;4613;48.392;9.998;2023-08-06T03:48:51;2.00;;;1.80;;
9156;SDS011;4613;48.392;9.998;2023-08-06T03:51:40;2.40;;;2.17;;
9156;SDS011;4613;48.392;9.998;2023-08-06T03:54:30;2.30;;;2.10;;
9156;SDS011;4613;48.392;9.998;2023-08-06T03:57:20;2.90;;;2.30;;
9156;SDS011;4613;48.392;9.998;2023-08-06T04:00:09;2.47;;;2.10;;
9156;SDS011;4613;48.392;9.998;2023-08-06T04:03:05;2.23;;;2.03;;
9156;SDS011;4613;48.392;9.998;2023-08-06T04:05:54;2.43;;;2.17;;
9156;SDS011;4613;48.392;9.998;2023-08-06T04:08:43;2.33;;;2.00;;
9156;SDS011;4613;48.392;9.998;2023-08-06T04:11:32;2.43;;;2.23;;
9156;SDS011;4613;48.392;9.998;2023-08-06T04:14:22;2.40;;;2.20;;
9156;SDS011;4613;48.392;9.998;2023-08-06T04:17:12;2.43;;;2.23;;
9156;SDS011;4613;48.392;9.998;2023-08-06T04:20:01;4.37;;;2.23;;
9156;SDS011;4613;48.392;9.998;2023-08-06T04:22:53;3.70;;;2.43;;
9156;SDS011;4613;48.392;9.998;2023-08-06T04:25:44;1.77;;;1.67;;
9156;SDS011;4613;48.392;9.998;2023-08-06T04:28:32;2.23;;;2.03;;
9156;SDS011;4613;48.392;9.998;2023-08-06T04:31:22;2.77;;;2.10;;
9156;SDS011;4613;48.392;9.998;2023-08-06T04:34:12;3.83;;;2.00;;
9156;SDS011;4613;48.392;9.998;2023-08-06T04:37:02;1.73;;;1.63;;
9156;SDS011;4613;48.392;9.998;2023-08-06T04:39:52;2.70;;;2.20;;
9156;SDS011;4613;48.392;9.998;2023-08-06T04:42:42;1.67;;;1.57;;
9156;SDS011;4613;48.392;9.998;2023-08-06T04:45:31;1.70;;;1.60;;
9156;SDS011;4613;48.392;9.998;2023-08-06T04:48:20;1.70;;;1.60;;
9156;SDS011;4613;48.392;9.998;2023-08-06T04:51:10;1.97;;;1.73;;
9156;SDS011;4613;48.392;9.998;2023-08-06T04:53:59;2.30;;;1.83;;
9156;SDS011;4613;48.392;9.998;2023-08-06T04:56:48;2.00;;;1.90;;
9156;SDS011;4613;48.392;9.998;2023-08-06T04:59:38;1.93;;;1.70;;
9156;SDS011;4613;48.392;9.998;2023-08-06T05:02:27;2.33;;;2.03;;
9156;SDS011;4613;48.392;9.998;2023-08-06T05:05:17;2.77;;;1.70;;
9156;SDS011;4613;48.392;9.998;2023-08-06T05:08:06;2.30;;;1.90;;
9156;SDS011;4613;48.392;9.998;2023-08-06T05:10:55;2.20;;;1.93;;
9156;SDS011;4613;48.392;9.998;2023-08-06T05:13:45;2.27;;;1.87;;
9156;SDS011;4613;48.392;9.998;2023-08-06T05:16:34;1.60;;;1.50;;
9156;SDS011;4613;48.392;9.998;2023-08-06T05:19:24;1.87;;;1.77;;
9156;SDS011;4613;48.392;9.998;2023-08-06T05:22:13;1.60;;;1.50;;
9156;SDS011;4613;48.392;9.998;2023-08-06T05:25:02;2.00;;;1.77;;
9156;SDS011;4613;48.392;9.998;2023-08-06T05:27:52;3.40;;;1.90;;
9156;SDS011;4613;48.392;9.998;2023-08-06T05:30:41;1.97;;;1.70;;
9156;SDS011;4613;48.392;9.998;2023-08-06T05:33:31;2.97;;;1.70;;
9156;SDS011;4613;48.392;9.998;2023-08-06T05:36:20;1.60;;;1.50;;
9156;SDS011;4613;48.392;9.998;2023-08-06T05:39:10;1.80;;;1.60;;
9156;SDS011;4613;48.392;9.998;2023-08-06T05:42:00;1.50;;;1.40;;
9156;SDS011;4613;48.392;9.998;2023-08-06T05:44:49;1.40;;;1.30;;
9156;SDS011;4613;48.392;9.998;2023-08-06T05:47:39;1.90;;;1.67;;
9156;SDS011;4613;48.392;9.998;2023-08-06T05:50:29;1.47;;;1.37;;
9156;SDS011;4613;48.392;9.998;2023-08-06T05:53:18;1.67;;;1.57;;
9156;SDS011;4613;48.392;9.998;2023-08-06T05:56:08;1.53;;;1.43;;
9156;SDS011;4613;48.392;9.998;2023-08-06T05:58:56;1.73;;;1.63;;
9156;SDS011;4613;48.392;9.998;2023-08-06T06:01:46;1.87;;;1.40;;
9156;SDS011;4613;48.392;9.998;2023-08-06T06:04:36;1.40;;;1.20;;
9156;SDS011;4613;48.392;9.998;2023-08-06T06:07:26;2.10;;;1.90;;
9156;SDS011;4613;48.392;9.998;2023-08-06T06:10:14;1.70;;;1.60;;
9156;SDS011;4613;48.392;9.998;2023-08-06T06:13:04;1.53;;;1.43;;
9156;SDS011;4613;48.392;9.998;2023-08-06T06:15:56;1.67;;;1.57;;
9156;SDS011;4613;48.392;9.998;2023-08-06T06:18:45;1.40;;;1.33;;
9156;SDS011;4613;48.392;9.998;2023-08-06T06:21:35;1.40;;;1.17;;
9156;SDS011;4613;48.392;9.998;2023-08-06T06:24:24;1.33;;;1.23;;
9156;SDS011;4613;48.392;9.998;2023-08-06T06:27:13;1.60;;;1.40;;
9156;SDS011;4613;48.392;9.998;2023-08-06T06:30:03;1.30;;;1.20;;
9156;SDS011;4613;48.392;9.998;2023-08-06T06:32:52;1.30;;;1.20;;
9156;SDS011;4613;48.392;9.998;2023-08-06T06:35:42;1.40;;;1.30;;
9156;SDS011;4613;48.392;9.998;2023-08-06T06:38:32;1.10;;;1.00;;
9156;SDS011;4613;48.392;9.998;2023-08-06T06:41:21;1.40;;;1.30;;
9156;SDS011;4613;48.392;9.998;2023-08-06T06:44:10;1.43;;;1.33;;
9156;SDS011;4613;48.392;9.998;2023-08-06T06:47:00;2.30;;;1.17;;
9156;SDS011;4613;48.392;9.998;2023-08-06T06:49:49;2.93;;;2.00;;
9156;SDS011;4613;48.392;9.998;2023-08-06T06:52:38;1.77;;;1.67;;
9156;SDS011;4613;48.392;9.998;2023-08-06T06:55:27;1.57;;;1.47;;
9156;SDS011;4613;48.392;9.998;2023-08-06T06:58:16;2.67;;;2.37;;
9156;SDS011;4613;48.392;9.998;2023-08-06T07:01:06;1.00;;;1.00;;
9156;SDS011;4613;48.392;9.998;2023-08-06T07:03:56;0.90;;;0.90;;
9156;SDS011;4613;48.392;9.998;2023-08-06T07:06:47;3.40;;;1.13;;
9156;SDS011;4613;48.392;9.998;2023-08-06T07:09:36;1.10;;;0.97;;
9156;SDS011;4613;48.392;9.998;2023-08-06T07:12:25;1.27;;;1.00;;
9156;SDS011;4613;48.392;9.998;2023-08-06T07:15:14;0.80;;;0.80;;
9156;SDS011;4613;48.392;9.998;2023-08-06T07:18:06;0.80;;;0.80;;
9156;SDS011;4613;48.392;9.998;2023-08-06T07:20:56;0.90;;;0.90;;
9156;SDS011;4613;48.392;9.998;2023-08-06T07:23:46;0.90;;;0.90;;
9156;SDS011;4613;48.392;9.998;2023-08-06T07:26:38;0.83;;;0.70;;
9156;SDS011;4613;48.392;9.998;2023-08-06T07:29:28;0.73;;;0.73;;
9156;SDS011;4613;48.392;9.998;2023-08-06T07:32:17;1.30;;;1.20;;
9156;SDS011;4613;48.392;9.998;2023-08-06T07:35:07;0.60;;;0.60;;
9156;SDS011;4613;48.392;9.998;2023-08-06T07:38:01;0.80;;;0.80;;
9156;SDS011;4613;48.392;9.998;2023-08-06T07:40:50;0.60;;;0.60;;
9156;SDS011;4613;48.392;9.998;2023-08-06T07:43:39;0.53;;;0.53;;
9156;SDS011;4613;48.392;9.998;2023-08-06T07:46:29;0.50;;;0.50;;
9156;SDS011;4613;48.392;9.998;2023-08-06T07:49:18;0.47;;;0.47;;
9156;SDS011;4613;48.392;9.998;2023-08-06T07:52:08;0.53;;;0.53;;
9156;SDS011;4613;48.392;9.998;2023-08-06T07:54:57;0.60;;;0.60;;
9156;SDS011;4613;48.392;9.998;2023-08-06T07:57:47;0.40;;;0.40;;
9156;SDS011;4613;48.392;9.998;2023-08-06T08:00:36;0.30;;;0.30;;
9156;SDS011;4613;48.392;9.998;2023-08-06T08:03:25;0.40;;;0.40;;
9156;SDS011;4613;48.392;9.998;2023-08-06T08:06:15;0.30;;;0.30;;
9156;SDS011;4613;48.392;9.998;2023-08-06T08:09:04;1.83;;;0.40;;
9156;SDS011;4613;48.392;9.998;2023-08-06T08:11:53;0.30;;;0.30;;
9156;SDS011;4613;48.392;9.998;2023-08-06T08:14:43;0.60;;;0.60;;
9156;SDS011;4613;48.392;9.998;2023-08-06T08:17:33;2.07;;;0.70;;
9156;SDS011;4613;48.392;9.998;2023-08-06T08:20:23;0.30;;;0.30;;
9156;SDS011;4613;48.392;9.998;2023-08-06T08:23:12;0.40;;;0.40;;
9156;SDS011;4613;48.392;9.998;2023-08-06T08:26:01;0.47;;;0.47;;
9156;SDS011;4613;48.392;9.998;2023-08-06T08:28:52;0.37;;;0.37;;
9156;SDS011;4613;48.392;9.998;2023-08-06T08:31:42;0.30;;;0.30;;
9156;SDS011;4613;48.392;9.998;2023-08-06T08:34:32;3.53;;;0.80;;
9156;SDS011;4613;48.392;9.998;2023-08-06T08:37:22;0.50;;;0.50;;
9156;SDS011;4613;48.392;9.998;2023-08-06T08:40:13;0.77;;;0.77;;
9156;SDS011;4613;48.392;9.998;2023-08-06T08:43:03;0.50;;;0.50;;
9156;SDS011;4613;48.392;9.998;2023-08-06T08:45:54;0.83;;;0.57;;
9156;SDS011;4613;48.392;9.998;2023-08-06T08:48:44;0.30;;;0.30;;
9156;SDS011;4613;48.392;9.998;2023-08-06T08:51:34;1.20;;;0.40;;
9156;SDS011;4613;48.392;9.998;2023-08-06T08:54:24;0.40;;;0.40;;
9156;SDS011;4613;48.392;9.998;2023-08-06T08:57:15;0.30;;;0.30;;
9156;SDS011;4613;48.392;9.998;2023-08-06T09:00:04;0.50;;;0.50;;
9156;SDS011;4613;48.392;9.998;2023-08-06T09:02:54;0.30;;;0.30;;
9156;SDS011;4613;48.392;9.998;2023-08-06T09:05:44;0.50;;;0.50;;
9156;SDS011;4613;48.392;9.998;2023-08-06T09:08:48;0.50;;;0.50;;
9156;SDS011;4613;48.392;9.998;2023-08-06T09:11:43;0.40;;;0.40;;
9156;SDS011;4613;48.392;9.998;2023-08-06T09:14:34;0.40;;;0.40;;
9156;SDS011;4613;48.392;9.998;2023-08-06T09:17:24;0.30;;;0.30;;
9156;SDS011;4613;48.392;9.998;2023-08-06T09:20:13;0.73;;;0.73;;
9156;SDS011;4613;48.392;9.998;2023-08-06T09:23:07;1.10;;;0.60;;
9156;SDS011;4613;48.392;9.998;2023-08-06T09:25:58;0.40;;;0.40;;
9156;SDS011;4613;48.392;9.998;2023-08-06T09:28:47;0.70;;;0.70;;
9156;SDS011;4613;48.392;9.998;2023-08-06T09:31:44;0.57;;;0.57;;
9156;SDS011;4613;48.392;9.998;2023-08-06T09:34:41;0.40;;;0.40;;
9156;SDS011;4613;48.392;9.998;2023-08-06T09:37:35;0.53;;;0.53;;
9156;SDS011;4613;48.392;9.998;2023-08-06T09:40:26;2.57;;;0.50;;
9156;SDS011;4613;48.392;9.998;2023-08-06T09:43:18;1.60;;;0.40;;
9156;SDS011;4613;48.392;9.998;2023-08-06T09:46:11;0.50;;;0.50;;
9156;SDS011;4613;48.392;9.998;2023-08-06T09:49:05;0.40;;;0.40;;
9156;SDS011;4613;48.392;9.998;2023-08-06T09:51:56;0.30;;;0.30;;
9156;SDS011;4613;48.392;9.998;2023-08-06T09:54:48;0.27;;;0.27;;
9156;SDS011;4613;48.392;9.998;2023-08-06T09:57:42;0.50;;;0.50;;
9156;SDS011;4613;48.392;9.998;2023-08-06T10:00:32;0.40;;;0.40;;
9156;SDS011;4613;48.392;9.998;2023-08-06T10:03:22;0.60;;;0.60;;
9156;SDS011;4613;48.392;9.998;2023-08-06T10:06:13;0.50;;;0.50;;
9156;SDS011;4613;48.392;9.998;2023-08-06T10:09:02;0.40;;;0.40;;
9156;SDS011;4613;48.392;9.998;2023-08-06T10:11:52;0.50;;;0.50;;
9156;SDS011;4613;48.392;9.998;2023-08-06T10:14:43;0.70;;;0.70;;
9156;SDS011;4613;48.392;9.998;2023-08-06T10:17:34;1.00;;;0.70;;
9156;SDS011;4613;48.392;9.998;2023-08-06T10:20:25;0.40;;;0.40;;
9156;SDS011;4613;48.392;9.998;2023-08-06T10:23:15;0.40;;;0.40;;
9156;SDS011;4613;48.392;9.998;2023-08-06T10:26:06;0.57;;;0.50;;
9156;SDS011;4613;48.392;9.998;2023-08-06T10:28:56;0.57;;;0.57;;
9156;SDS011;4613;48.392;9.998;2023-08-06T10:34:54;0.67;;;0.67;;
9156;SDS011;4613;48.392;9.998;2023-08-06T10:37:47;0.50;;;0.50;;
9156;SDS011;4613;48.392;9.998;2023-08-06T10:40:37;0.57;;;0.57;;
9156;SDS011;4613;48.392;9.998;2023-08-06T10:43:33;0.70;;;0.70;;
9156;SDS011;4613;48.392;9.998;2023-08-06T10:46:27;0.60;;;0.60;;
9156;SDS011;4613;48.392;9.998;2023-08-06T10:49:17;0.50;;;0.50;;
9156;SDS011;4613;48.392;9.998;2023-08-06T10:52:07;0.57;;;0.57;;
9156;SDS011;4613;48.392;9.998;2023-08-06T10:54:57;0.47;;;0.47;;
9156;SDS011;4613;48.392;9.998;2023-08-06T10:57:46;0.40;;;0.40;;
9156;SDS011;4613;48.392;9.998;2023-08-06T11:00:35;0.30;;;0.30;;
9156;SDS011;4613;48.392;9.998;2023-08-06T11:03:24;0.40;;;0.40;;
9156;SDS011;4613;48.392;9.998;2023-08-06T11:06:19;0.30;;;0.30;;
9156;SDS011;4613;48.392;9.998;2023-08-06T11:09:10;0.33;;;0.33;;
9156;SDS011;4613;48.392;9.998;2023-08-06T11:11:59;0.37;;;0.37;;
9156;SDS011;4613;48.392;9.998;2023-08-06T11:14:51;0.40;;;0.40;;
9156;SDS011;4613;48.392;9.998;2023-08-06T11:17:40;0.57;;;0.40;;
9156;SDS011;4613;48.392;9.998;2023-08-06T11:20:31;0.77;;;0.50;;
9156;SDS011;4613;48.392;9.998;2023-08-06T11:23:20;5.33;;;3.40;;
9156;SDS011;4613;48.392;9.998;2023-08-06T11:26:10;0.43;;;0.30;;
9156;SDS011;4613;48.392;9.998;2023-08-06T11:29:00;0.40;;;0.40;;
9156;SDS011;4613;48.392;9.998;2023-08-06T11:31:49;1.70;;;0.40;;
9156;SDS011;4613;48.392;9.998;2023-08-06T11:34:39;0.90;;;0.40;;
9156;SDS011;4613;48.392;9.998;2023-08-06T11:37:30;0.50;;;0.50;;
9156;SDS011;4613;48.392;9.998;2023-08-06T11:40:20;0.60;;;0.60;;
9156;SDS011;4613;48.392;9.998;2023-08-06T11:43:10;0.50;;;0.50;;
9156;SDS011;4613;48.392;9.998;2023-08-06T11:46:00;0.37;;;0.37;;
9156;SDS011;4613;48.392;9.998;2023-08-06T11:48:51;0.30;;;0.30;;
9156;SDS011;4613;48.392;9.998;2023-08-06T11:51:44;0.30;;;0.30;;
9156;SDS011;4613;48.392;9.998;2023-08-06T11:54:34;0.30;;;0.30;;
9156;SDS011;4613;48.392;9.998;2023-08-06T11:57:25;0.40;;;0.40;;
9156;SDS011;4613;48.392;9.998;2023-08-06T12:00:15;1.07;;;0.60;;
9156;SDS011;4613;48.392;9.998;2023-08-06T12:03:06;1.43;;;0.40;;
9156;SDS011;4613;48.392;9.998;2023-08-06T12:05:56;0.50;;;0.50;;
9156;SDS011;4613;48.392;9.998;2023-08-06T12:08:45;0.50;;;0.40;;
9156;SDS011;4613;48.392;9.998;2023-08-06T12:11:35;0.30;;;0.30;;
9156;SDS011;4613;48.392;9.998;2023-08-06T12:14:24;0.30;;;0.30;;
9156;SDS011;4613;48.392;9.998;2023-08-06T12:17:14;0.30;;;0.30;;
9156;SDS011;4613;48.392;9.998;2023-08-06T12:20:04;0.50;;;0.40;;
9156;SDS011;4613;48.392;9.998;2023-08-06T12:22:54;0.43;;;0.43;;
9156;SDS011;4613;48.392;9.998;2023-08-06T12:25:43;0.40;;;0.40;;
9156;SDS011;4613;48.392;9.998;2023-08-06T12:28:33;0.27;;;0.27;;
9156;SDS011;4613;48.392;9.998;2023-08-06T12:31:23;0.40;;;0.40;;
9156;SDS011;4613;48.392;9.998;2023-08-06T12:34:12;0.40;;;0.40;;
9156;SDS011;4613;48.392;9.998;2023-08-06T12:37:02;1.50;;;0.27;;
9156;SDS011;4613;48.392;9.998;2023-08-06T12:39:52;0.30;;;0.30;;
9156;SDS011;4613;48.392;9.998;2023-08-06T12:42:42;0.53;;;0.40;;
9156;SDS011;4613;48.392;9.998;2023-08-06T12:45:31;0.33;;;0.33;;
9156;SDS011;4613;48.392;9.998;2023-08-06T12:48:21;0.40;;;0.40;;
9156;SDS011;4613;48.392;9.998;2023-08-06T12:51:11;0.50;;;0.50;;
9156;SDS011;4613;48.392;9.998;2023-08-06T12:54:00;0.40;;;0.40;;
9156;SDS011;4613;48.392;9.998;2023-08-06T12:56:50;0.40;;;0.40;;
9156;SDS011;4613;48.392;9.998;2023-08-06T12:59:40;0.70;;;0.70;;
9156;SDS011;4613;48.392;9.998;2023-08-06T13:02:30;0.60;;;0.60;;
9156;SDS011;4613;48.392;9.998;2023-08-06T13:05:19;0.50;;;0.40;;
9156;SDS011;4613;48.392;9.998;2023-08-06T13:08:09;0.20;;;0.20;;
9156;SDS011;4613;48.392;9.998;2023-08-06T13:10:58;0.20;;;0.20;;
9156;SDS011;4613;48.392;9.998;2023-08-06T13:13:47;0.40;;;0.40;;
9156;SDS011;4613;48.392;9.998;2023-08-06T13:16:36;0.30;;;0.30;;
9156;SDS011;4613;48.392;9.998;2023-08-06T13:19:27;0.63;;;0.60;;
9156;SDS011;4613;48.392;9.998;2023-08-06T13:22:17;0.30;;;0.30;;
9156;SDS011;4613;48.392;9.998;2023-08-06T13:25:06;0.30;;;0.30;;
9156;SDS011;4613;48.392;9.998;2023-08-06T13:27:56;1.00;;;0.47;;
9156;SDS011;4613;48.392;9.998;2023-08-06T13:30:45;2.40;;;0.50;;
9156;SDS011;4613;48.392;9.998;2023-08-06T13:33:35;0.33;;;0.33;;
9156;SDS011;4613;48.392;9.998;2023-08-06T13:36:25;0.40;;;0.40;;
9156;SDS011;4613;48.392;9.998;2023-08-06T13:39:15;0.93;;;0.60;;
9156;SDS011;4613;48.392;9.998;2023-08-06T13:42:06;0.47;;;0.47;;
9156;SDS011;4613;48.392;9.998;2023-08-06T13:44:55;0.50;;;0.50;;
9156;SDS011;4613;48.392;9.998;2023-08-06T13:47:51;0.80;;;0.80;;
9156;SDS011;4613;48.392;9.998;2023-08-06T13:50:41;0.33;;;0.33;;
9156;SDS011;4613;48.392;9.998;2023-08-06T13:53:30;0.40;;;0.40;;
9156;SDS011;4613;48.392;9.998;2023-08-06T13:56:20;0.77;;;0.40;;
9156;SDS011;4613;48.392;9.998;2023-08-06T13:59:09;0.50;;;0.50;;
9156;SDS011;4613;48.392;9.998;2023-08-06T14:02:01;0.50;;;0.50;;
9156;SDS011;4613;48.392;9.998;2023-08-06T14:04:54;0.60;;;0.60;;
9156;SDS011;4613;48.392;9.998;2023-08-06T14:07:44;0.80;;;0.80;;
9156;SDS011;4613;48.392;9.998;2023-08-06T14:10:33;0.40;;;0.40;;
9156;SDS011;4613;48.392;9.998;2023-08-06T14:13:22;0.50;;;0.50;;
9156;SDS011;4613;48.392;9.998;2023-08-06T14:16:11;0.50;;;0.50;;
9156;SDS011;4613;48.392;9.998;2023-08-06T14:19:00;0.60;;;0.60;;
9156;SDS011;4613;48.392;9.998;2023-08-06T14:21:49;0.60;;;0.60;;
9156;SDS011;4613;48.392;9.998;2023-08-06T14:24:39;0.77;;;0.70;;
9156;SDS011;4613;48.392;9.998;2023-08-06T14:27:28;0.50;;;0.50;;
9156;SDS011;4613;48.392;9.998;2023-08-06T14:30:18;0.60;;;0.60;;
9156;SDS011;4613;48.392;9.998;2023-08-06T14:33:07;0.50;;;0.50;;
9156;SDS011;4613;48.392;9.998;2023-08-06T14:35:57;0.40;;;0.40;;
9156;SDS011;4613;48.392;9.998;2023-08-06T14:38:47;0.37;;;0.37;;
9156;SDS011;4613;48.392;9.998;2023-08-06T14:41:36;0.30;;;0.30;;
9156;SDS011;4613;48.392;9.998;2023-08-06T14:44:26;0.30;;;0.30;;
9156;SDS011;4613;48.392;9.998;2023-08-06T14:47:15;0.40;;;0.40;;
9156;SDS011;4613;48.392;9.998;2023-08-06T14:50:04;0.60;;;0.60;;
9156;SDS011;4613;48.392;9.998;2023-08-06T14:52:54;0.40;;;0.40;;
9156;SDS011;4613;48.392;9.998;2023-08-06T14:55:43;0.50;;;0.50;;
9156;SDS011;4613;48.392;9.998;2023-08-06T14:58:32;0.50;;;0.50;;
9156;SDS011;4613;48.392;9.998;2023-08-06T15:01:21;0.40;;;0.40;;
9156;SDS011;4613;48.392;9.998;2023-08-06T15:04:10;0.60;;;0.60;;
9156;SDS011;4613;48.392;9.998;2023-08-06T15:07:01;0.47;;;0.47;;
9156;SDS011;4613;48.392;9.998;2023-08-06T15:09:51;0.30;;;0.30;;
9156;SDS011;4613;48.392;9.998;2023-08-06T15:12:42;0.50;;;0.50;;
9156;SDS011;4613;48.392;9.998;2023-08-06T15:15:32;1.40;;;1.10;;
9156;SDS011;4613;48.392;9.998;2023-08-06T15:18:21;0.57;;;0.57;;
9156;SDS011;4613;48.392;9.998;2023-08-06T15:21:11;0.40;;;0.40;;
9156;SDS011;4613;48.392;9.998;2023-08-06T15:24:01;0.40;;;0.40;;
9156;SDS011;4613;48.392;9.998;2023-08-06T15:26:51;0.40;;;0.40;;
9156;SDS011;4613;48.392;9.998;2023-08-06T15:29:41;0.47;;;0.40;;
9156;SDS011;4613;48.392;9.998;2023-08-06T15:32:31;0.40;;;0.40;;
9156;SDS011;4613;48.392;9.998;2023-08-06T15:35:21;0.40;;;0.40;;
9156;SDS011;4613;48.392;9.998;2023-08-06T15:38:10;0.50;;;0.50;;
9156;SDS011;4613;48.392;9.998;2023-08-06T15:40:59;0.40;;;0.40;;
9156;SDS011;4613;48.392;9.998;2023-08-06T15:43:49;0.50;;;0.50;;
9156;SDS011;4613;48.392;9.998;2023-08-06T15:46:38;0.53;;;0.53;;
9156;SDS011;4613;48.392;9.998;2023-08-06T15:49:28;0.50;;;0.50;;
9156;SDS011;4613;48.392;9.998;2023-08-06T15:52:17;0.60;;;0.60;;
9156;SDS011;4613;48.392;9.998;2023-08-06T15:55:07;0.60;;;0.60;;
9156;SDS011;4613;48.392;9.998;2023-08-06T15:57:57;0.40;;;0.40;;
9156;SDS011;4613;48.392;9.998;2023-08-06T16:00:46;0.40;;;0.40;;
9156;SDS011;4613;48.392;9.998;2023-08-06T16:03:37;0.30;;;0.30;;
9156;SDS011;4613;48.392;9.998;2023-08-06T16:06:30;0.50;;;0.50;;
9156;SDS011;4613;48.392;9.998;2023-08-06T16:09:19;0.33;;;0.33;;
9156;SDS011;4613;48.392;9.998;2023-08-06T16:12:12;0.40;;;0.40;;
9156;SDS011;4613;48.392;9.998;2023-08-06T16:15:04;0.30;;;0.30;;
9156;SDS011;4613;48.392;9.998;2023-08-06T16:17:54;0.40;;;0.40;;
9156;SDS011;4613;48.392;9.998;2023-08-06T16:20:43;0.50;;;0.50;;
9156;SDS011;4613;48.392;9.998;2023-08-06T16:23:33;0.53;;;0.53;;
9156;SDS011;4613;48.392;9.998;2023-08-06T16:26:23;0.43;;;0.43;;
9156;SDS011;4613;48.392;9.998;2023-08-06T16:29:13;0.40;;;0.40;;
9156;SDS011;4613;48.392;9.998;2023-08-06T16:32:02;0.30;;;0.30;;
9156;SDS011;4613;48.392;9.998;2023-08-06T16:34:53;0.40;;;0.40;;
9156;SDS011;4613;48.392;9.998;2023-08-06T16:37:44;0.47;;;0.47;;
9156;SDS011;4613;48.392;9.998;2023-08-06T16:40:35;0.50;;;0.50;;
9156;SDS011;4613;48.392;9.998;2023-08-06T16:43:24;0.40;;;0.40;;
9156;SDS011;4613;48.392;9.998;2023-08-06T16:46:14;0.50;;;0.50;;
9156;SDS011;4613;48.392;9.998;2023-08-06T16:49:04;0.60;;;0.60;;
9156;SDS011;4613;48.392;9.998;2023-08-06T16:51:53;0.37;;;0.33;;
9156;SDS011;4613;48.392;9.998;2023-08-06T16:54:42;0.30;;;0.30;;
9156;SDS011;4613;48.392;9.998;2023-08-06T16:57:31;0.63;;;0.60;;
9156;SDS011;4613;48.392;9.998;2023-08-06T17:00:21;0.60;;;0.60;;
9156;SDS011;4613;48.392;9.998;2023-08-06T17:03:11;0.40;;;0.40;;
9156;SDS011;4613;48.392;9.998;2023-08-06T17:06:01;0.40;;;0.40;;
9156;SDS011;4613;48.392;9.998;2023-08-06T17:08:51;0.50;;;0.50;;
9156;SDS011;4613;48.392;9.998;2023-08-06T17:11:40;0.50;;;0.50;;
9156;SDS011;4613;48.392;9.998;2023-08-06T17:14:30;0.40;;;0.40;;
9156;SDS011;4613;48.392;9.998;2023-08-06T17:17:20;0.40;;;0.40;;
9156;SDS011;4613;48.392;9.998;2023-08-06T17:20:09;0.40;;;0.40;;
9156;SDS011;4613;48.392;9.998;2023-08-06T17:22:59;0.40;;;0.40;;
9156;SDS011;4613;48.392;9.998;2023-08-06T17:25:49;0.70;;;0.70;;
9156;SDS011;4613;48.392;9.998;2023-08-06T17:28:38;0.90;;;0.60;;
9156;SDS011;4613;48.392;9.998;2023-08-06T17:31:28;0.50;;;0.50;;
9156;SDS011;4613;48.392;9.998;2023-08-06T17:34:18;0.43;;;0.43;;
9156;SDS011;4613;48.392;9.998;2023-08-06T17:37:07;4.60;;;0.50;;
9156;SDS011;4613;48.392;9.998;2023-08-06T17:39:56;1.07;;;0.40;;
9156;SDS011;4613;48.392;9.998;2023-08-06T17:42:45;0.40;;;0.40;;
9156;SDS011;4613;48.392;9.998;2023-08-06T17:45:34;0.63;;;0.40;;
9156;SDS011;4613;48.392;9.998;2023-08-06T17:48:25;0.50;;;0.50;;
9156;SDS011;4613;48.392;9.998;2023-08-06T17:51:14;0.50;;;0.50;;
9156;SDS011;4613;48.392;9.998;2023-08-06T17:54:03;0.50;;;0.47;;